Airfield :
LOGIN :

Register | Disclaimer

   EN    FR    IT 

 










Legend :    VFR   Marginal VFR   IFR   Intensive IFR   Very Intensive IFR
Visi :
Ceiling :
>= 8 km
>= 3000ft
5 to 8 km
1000 to 3000 ft
1500m to 5 km
500 to 1000 ft
800 to 1500m
200 to 500 ft
< 800m
< 200 ft
Symbols :   Thunderstorms  Fog  Heavy snow  Heavy precipitations  Wind > 20 kt
SIGMETs :     Misc.  Thunderstorms  Icing  Turbulence  Mountain Waves  Volcanic Ashes







- Airport Elevation : 16 ft
- IATA code : SDR


LEXJ - Santander Cantabria

CURRENT METAR :
  • 211700Z 26007KT 230V290 9000 RA SCT012 BKN045 18/18 Q1017

EXPIRED METARs :
  • 211630Z 29007KT 9000 RA SCT012 BKN040 18/17 Q1017
  • 211600Z 27005KT 230V300 9999 -RA FEW012 SCT022 BKN045 19/18 Q1017
  • 211530Z 29004KT 260V320 9999 -RA FEW025 OVC050 19/17 Q1017
  • 211500Z 32005KT 290V360 9999 -RA SCT020 BKN074 20/17 Q1017
  • 211430Z 33004KT 280V030 9999 -DZ FEW020 BKN072 20/16 Q1017

TAF TAF LEXJ
Valid from the 21 at 15:00 until the 22 at 15:00 UTC


211400Z 2115/2215 24009KT 9999 SCT025 BKN050 TX23/2215Z TN17/2205Z
PROB40
TEMPO 2115/2120 RA
PROB30
TEMPO 2115/2120 30010KT SHRA SCT030TCU
PROB30
TEMPO 2203/2209 SHRA SCT030TCU
TEMPO 2212/2215 35010KT
No reported NOTAMs for that airfield.
1 SIGMET reported for the Madrid FIR (LECM) :
 
Severe turbulence
LECM SIGMET 1 VALID 211529/211730 LEVA
LECM MADRID UIR SEV TURB OBS AT 1529Z WI N41 W00323 - N4151 W00324 - N4155 W00205 - N4057 W00213 - N41 W00323 FL330/370 MOV E 20KT NC=



MET'MAP, your aeronautical weather chart ! - Copyright ORBIFLY December 2007 - Disclaimer

ORBIFLY MET'MAP TEAM :

Programming & Development : Alexandra Zaïnal
Concept & Development : Baudouin d'Aumeries
Co-Development & Prog : Marc-Olivier Méhu
Technical & hardware support : Manuel Goepfert

Contact : metmap@orbifly.com




SOURCES & CREDITS :

   NOAA